sensor_id;sensor_type;location;lat;lon;timestamp;pressure;altitude;pressure_sealevel;temperature;humidity
68141;BME280;54941;52.220;104.306;2023-04-20T00:00:24;97250.94;;;4.78;28.90
68141;BME280;54941;52.220;104.306;2023-04-20T00:02:50;97249.75;;;5.08;27.49
68141;BME280;54941;52.220;104.306;2023-04-20T00:05:17;97254.63;;;5.45;27.93
68141;BME280;54941;52.220;104.306;2023-04-20T00:07:43;97261.22;;;6.15;26.63
68141;BME280;54941;52.220;104.306;2023-04-20T00:10:10;97265.50;;;7.29;25.78
68141;BME280;54941;52.220;104.306;2023-04-20T00:12:40;97265.50;;;7.29;25.78
68141;BME280;54941;52.220;104.306;2023-04-20T00:15:07;97268.22;;;5.02;28.03
68141;BME280;54941;52.220;104.306;2023-04-20T00:17:34;97268.16;;;5.37;26.93
68141;BME280;54941;52.220;104.306;2023-04-20T00:20:00;97271.44;;;4.06;30.53
68141;BME280;54941;52.220;104.306;2023-04-20T00:22:27;65906.28;;;-142.07;100.00
68141;BME280;54941;52.220;104.306;2023-04-20T00:24:53;97274.91;;;6.06;27.61
68141;BME280;54941;52.220;104.306;2023-04-20T00:27:20;97278.56;;;5.96;26.01
68141;BME280;54941;52.220;104.306;2023-04-20T00:29:48;97282.63;;;6.14;26.18
68141;BME280;54941;52.220;104.306;2023-04-20T00:32:18;65906.28;;;-142.07;100.00
68141;BME280;54941;52.220;104.306;2023-04-20T00:34:45;65906.28;;;-142.07;100.00
68141;BME280;54941;52.220;104.306;2023-04-20T00:37:45;65906.28;;;-142.07;100.00
68141;BME280;54941;52.220;104.306;2023-04-20T00:40:11;97271.34;;;7.78;24.44
68141;BME280;54941;52.220;104.306;2023-04-20T00:42:38;97273.34;;;7.28;25.29
68141;BME280;54941;52.220;104.306;2023-04-20T00:45:07;97278.28;;;6.57;26.94
68141;BME280;54941;52.220;104.306;2023-04-20T00:47:33;97278.78;;;6.10;27.79
68141;BME280;54941;52.220;104.306;2023-04-20T00:50:01;97283.72;;;6.54;27.49
68141;BME280;54941;52.220;104.306;2023-04-20T00:52:29;97275.28;;;6.61;27.43
68141;BME280;54941;52.220;104.306;2023-04-20T00:54:55;65906.28;;;-142.07;100.00
68141;BME280;54941;52.220;104.306;2023-04-20T00:57:22;75427.72;;;6.61;100.00
68141;BME280;54941;52.220;104.306;2023-04-20T00:59:49;65906.28;;;-142.07;100.00
68141;BME280;54941;52.220;104.306;2023-04-20T01:02:17;65906.28;;;-142.07;100.00
68141;BME280;54941;52.220;104.306;2023-04-20T01:04:43;65906.28;;;-142.07;100.00
68141;BME280;54941;52.220;104.306;2023-04-20T01:07:10;65906.28;;;-142.07;100.00
68141;BME280;54941;52.220;104.306;2023-04-20T01:09:38;65906.28;;;-142.07;100.00
68141;BME280;54941;52.220;104.306;2023-04-20T01:12:05;65906.28;;;-142.07;100.00
68141;BME280;54941;52.220;104.306;2023-04-20T01:14:31;65906.28;;;-142.07;100.00
68141;BME280;54941;52.220;104.306;2023-04-20T01:16:58;65906.28;;;-142.07;100.00
68141;BME280;54941;52.220;104.306;2023-04-20T01:19:25;65906.28;;;-142.07;100.00
68141;BME280;54941;52.220;104.306;2023-04-20T01:22:15;65906.28;;;-142.07;100.00
68141;BME280;54941;52.220;104.306;2023-04-20T01:24:57;65906.28;;;-142.07;100.00
68141;BME280;54941;52.220;104.306;2023-04-20T01:27:48;65906.28;;;-142.07;100.00
68141;BME280;54941;52.220;104.306;2023-04-20T01:30:15;97279.09;;;9.39;21.72
68141;BME280;54941;52.220;104.306;2023-04-20T01:32:42;97277.28;;;7.79;24.31
68141;BME280;54941;52.220;104.306;2023-04-20T01:35:08;97282.13;;;11.02;20.50
68141;BME280;54941;52.220;104.306;2023-04-20T01:37:37;97278.59;;;10.02;21.33
68141;BME280;54941;52.220;104.306;2023-04-20T01:40:04;65906.28;;;-142.07;100.00
68141;BME280;54941;52.220;104.306;2023-04-20T01:42:32;97281.53;;;8.95;21.24
68141;BME280;54941;52.220;104.306;2023-04-20T01:44:59;65906.28;;;-142.07;100.00
68141;BME280;54941;52.220;104.306;2023-04-20T01:47:25;97283.25;;;10.21;20.98
68141;BME280;54941;52.220;104.306;2023-04-20T01:49:51;97280.13;;;9.67;22.57
68141;BME280;54941;52.220;104.306;2023-04-20T01:52:18;97279.03;;;8.34;23.85
68141;BME280;54941;52.220;104.306;2023-04-20T01:55:05;65906.28;;;-142.07;100.00
68141;BME280;54941;52.220;104.306;2023-04-20T01:57:31;97285.44;;;9.66;22.30
68141;BME280;54941;52.220;104.306;2023-04-20T01:59:59;97283.03;;;7.81;21.91
68141;BME280;54941;52.220;104.306;2023-04-20T02:02:25;97282.44;;;7.79;22.97
68141;BME280;54941;52.220;104.306;2023-04-20T02:04:52;97281.84;;;9.00;21.90
68141;BME280;54941;52.220;104.306;2023-04-20T02:07:19;97285.09;;;8.41;22.75
68141;BME280;54941;52.220;104.306;2023-04-20T02:09:47;97287.69;;;9.32;22.27
68141;BME280;54941;52.220;104.306;2023-04-20T02:12:13;97283.31;;;9.17;20.49
68141;BME280;54941;52.220;104.306;2023-04-20T02:14:40;97271.50;;;7.77;21.55
68141;BME280;54941;52.220;104.306;2023-04-20T02:17:07;97271.97;;;8.27;21.74
68141;BME280;54941;52.220;104.306;2023-04-20T02:19:33;97271.59;;;9.15;21.11
68141;BME280;54941;52.220;104.306;2023-04-20T02:22:00;65906.28;;;-142.07;100.00
68141;BME280;54941;52.220;104.306;2023-04-20T02:24:26;97269.25;;;8.29;21.23
68141;BME280;54941;52.220;104.306;2023-04-20T02:26:54;65906.28;;;-142.07;100.00
68141;BME280;54941;52.220;104.306;2023-04-20T02:29:21;65906.28;;;-142.07;100.00
68141;BME280;54941;52.220;104.306;2023-04-20T02:31:47;97273.72;;;9.11;20.58
68141;BME280;54941;52.220;104.306;2023-04-20T02:34:13;97270.91;;;10.17;18.12
68141;BME280;54941;52.220;104.306;2023-04-20T02:36:40;97274.53;;;10.37;17.41
68141;BME280;54941;52.220;104.306;2023-04-20T02:39:06;97282.69;;;9.53;18.20
68141;BME280;54941;52.220;104.306;2023-04-20T02:41:33;97273.38;;;7.99;20.00
68141;BME280;54941;52.220;104.306;2023-04-20T02:44:01;97279.13;;;10.99;17.59
68141;BME280;54941;52.220;104.306;2023-04-20T02:46:27;65906.28;;;-142.07;100.00
68141;BME280;54941;52.220;104.306;2023-04-20T02:48:53;97275.72;;;9.01;19.27
68141;BME280;54941;52.220;104.306;2023-04-20T02:51:20;97276.00;;;10.82;17.56
68141;BME280;54941;52.220;104.306;2023-04-20T02:53:46;97275.13;;;10.10;16.48
68141;BME280;54941;52.220;104.306;2023-04-20T02:56:13;97277.34;;;10.78;16.95
68141;BME280;54941;52.220;104.306;2023-04-20T02:58:39;97271.31;;;8.87;18.36
68141;BME280;54941;52.220;104.306;2023-04-20T03:01:07;97273.97;;;8.79;19.50
68141;BME280;54941;52.220;104.306;2023-04-20T03:03:34;97270.63;;;7.38;19.81
68141;BME280;54941;52.220;104.306;2023-04-20T03:06:00;97276.53;;;7.54;20.02
68141;BME280;54941;52.220;104.306;2023-04-20T03:08:26;97279.59;;;8.74;18.28
68141;BME280;54941;52.220;104.306;2023-04-20T03:10:53;97277.72;;;8.91;18.88
68141;BME280;54941;52.220;104.306;2023-04-20T03:13:19;97271.63;;;8.61;20.45
68141;BME280;54941;52.220;104.306;2023-04-20T03:15:46;97277.28;;;9.77;18.23
68141;BME280;54941;52.220;104.306;2023-04-20T03:18:14;97269.72;;;9.61;17.72
68141;BME280;54941;52.220;104.306;2023-04-20T03:20:40;97271.88;;;10.31;17.30
68141;BME280;54941;52.220;104.306;2023-04-20T03:23:07;97262.63;;;11.21;16.78
68141;BME280;54941;52.220;104.306;2023-04-20T03:25:33;97259.56;;;11.88;15.08
68141;BME280;54941;52.220;104.306;2023-04-20T03:27:59;97262.91;;;9.53;16.83
68141;BME280;54941;52.220;104.306;2023-04-20T03:30:26;97269.06;;;8.61;17.94
68141;BME280;54941;52.220;104.306;2023-04-20T03:32:53;97261.44;;;8.14;19.51
68141;BME280;54941;52.220;104.306;2023-04-20T03:35:20;97256.88;;;8.24;17.66
68141;BME280;54941;52.220;104.306;2023-04-20T03:37:47;97255.69;;;9.49;18.42
68141;BME280;54941;52.220;104.306;2023-04-20T03:40:13;65906.28;;;-142.07;100.00
68141;BME280;54941;52.220;104.306;2023-04-20T03:42:40;97251.13;;;7.20;19.48
68141;BME280;54941;52.220;104.306;2023-04-20T03:45:07;97252.97;;;9.27;18.00
68141;BME280;54941;52.220;104.306;2023-04-20T03:47:34;97247.19;;;8.04;18.22
68141;BME280;54941;52.220;104.306;2023-04-20T03:50:00;97252.38;;;9.25;18.23
68141;BME280;54941;52.220;104.306;2023-04-20T03:52:28;97251.00;;;9.52;16.21
68141;BME280;54941;52.220;104.306;2023-04-20T03:54:55;97232.75;;;10.84;14.99
68141;BME280;54941;52.220;104.306;2023-04-20T03:57:21;97246.47;;;9.84;15.06
68141;BME280;54941;52.220;104.306;2023-04-20T03:59:47;97235.53;;;9.23;15.09
68141;BME280;54941;52.220;104.306;2023-04-20T04:02:14;97233.81;;;6.90;16.62
68141;BME280;54941;52.220;104.306;2023-04-20T04:04:40;97232.53;;;9.78;15.76
68141;BME280;54941;52.220;104.306;2023-04-20T04:07:07;65906.28;;;-142.07;100.00
68141;BME280;54941;52.220;104.306;2023-04-20T04:09:35;97231.38;;;8.54;16.06
68141;BME280;54941;52.220;104.306;2023-04-20T04:12:01;97211.38;;;7.79;15.94
68141;BME280;54941;52.220;104.306;2023-04-20T04:14:28;97205.19;;;8.58;16.59
68141;BME280;54941;52.220;104.306;2023-04-20T04:16:54;97208.72;;;9.32;16.32
68141;BME280;54941;52.220;104.306;2023-04-20T04:19:21;97203.16;;;7.45;19.71
68141;BME280;54941;52.220;104.306;2023-04-20T04:21:47;97190.13;;;7.47;17.54
68141;BME280;54941;52.220;104.306;2023-04-20T04:24:13;97185.47;;;6.87;19.32
68141;BME280;54941;52.220;104.306;2023-04-20T04:26:42;97179.66;;;6.20;18.65
68141;BME280;54941;52.220;104.306;2023-04-20T04:29:08;97184.81;;;7.09;17.73
68141;BME280;54941;52.220;104.306;2023-04-20T04:31:34;97185.50;;;7.89;21.14
68141;BME280;54941;52.220;104.306;2023-04-20T04:34:01;97183.22;;;6.68;18.21
68141;BME280;54941;52.220;104.306;2023-04-20T04:36:27;97184.56;;;8.44;19.28
68141;BME280;54941;52.220;104.306;2023-04-20T04:38:54;97178.91;;;9.96;17.34
68141;BME280;54941;52.220;104.306;2023-04-20T04:41:20;97179.22;;;8.91;17.47
68141;BME280;54941;52.220;104.306;2023-04-20T04:43:48;97168.50;;;7.57;19.67
68141;BME280;54941;52.220;104.306;2023-04-20T04:46:14;97173.63;;;7.88;18.98
68141;BME280;54941;52.220;104.306;2023-04-20T04:48:41;97176.19;;;7.57;17.45
68141;BME280;54941;52.220;104.306;2023-04-20T04:51:07;97168.66;;;7.48;17.30
68141;BME280;54941;52.220;104.306;2023-04-20T04:53:34;97153.59;;;6.65;17.68
68141;BME280;54941;52.220;104.306;2023-04-20T04:56:01;97155.81;;;7.09;18.78
68141;BME280;54941;52.220;104.306;2023-04-20T04:58:27;97160.38;;;5.92;17.73
68141;BME280;54941;52.220;104.306;2023-04-20T05:00:55;97154.56;;;6.72;18.25
68141;BME280;54941;52.220;104.306;2023-04-20T05:03:21;97151.53;;;7.40;20.04
68141;BME280;54941;52.220;104.306;2023-04-20T05:05:48;97148.75;;;7.03;20.41
68141;BME280;54941;52.220;104.306;2023-04-20T05:08:14;97143.97;;;7.86;18.74
68141;BME280;54941;52.220;104.306;2023-04-20T05:10:41;97138.16;;;7.14;17.60
68141;BME280;54941;52.220;104.306;2023-04-20T05:13:07;97137.56;;;8.12;17.56
68141;BME280;54941;52.220;104.306;2023-04-20T05:15:34;97135.75;;;7.59;16.80
68141;BME280;54941;52.220;104.306;2023-04-20T05:18:02;97140.03;;;8.28;16.46
68141;BME280;54941;52.220;104.306;2023-04-20T05:20:28;97128.97;;;9.17;19.48
68141;BME280;54941;52.220;104.306;2023-04-20T05:22:54;97128.31;;;6.30;23.01
68141;BME280;54941;52.220;104.306;2023-04-20T05:25:21;97141.00;;;7.66;19.10
68141;BME280;54941;52.220;104.306;2023-04-20T05:27:47;97143.81;;;7.48;18.08
68141;BME280;54941;52.220;104.306;2023-04-20T05:30:14;97135.53;;;7.69;17.57
68141;BME280;54941;52.220;104.306;2023-04-20T05:32:40;97143.50;;;6.23;19.14
68141;BME280;54941;52.220;104.306;2023-04-20T05:35:09;97131.81;;;6.29;20.47
68141;BME280;54941;52.220;104.306;2023-04-20T05:37:35;97130.69;;;6.80;18.67
68141;BME280;54941;52.220;104.306;2023-04-20T05:40:02;97120.59;;;6.87;18.26
68141;BME280;54941;52.220;104.306;2023-04-20T05:42:30;97123.81;;;7.74;18.07
68141;BME280;54941;52.220;104.306;2023-04-20T05:44:57;97118.19;;;7.79;17.05
68141;BME280;54941;52.220;104.306;2023-04-20T05:47:23;97113.44;;;7.68;17.37
68141;BME280;54941;52.220;104.306;2023-04-20T05:49:49;97110.78;;;7.84;17.57
68141;BME280;54941;52.220;104.306;2023-04-20T05:52:17;97111.13;;;8.35;16.87
68141;BME280;54941;52.220;104.306;2023-04-20T05:54:44;97113.47;;;7.60;17.08
68141;BME280;54941;52.220;104.306;2023-04-20T05:57:10;97113.44;;;7.68;16.99
68141;BME280;54941;52.220;104.306;2023-04-20T05:59:37;97107.47;;;8.29;17.44
68141;BME280;54941;52.220;104.306;2023-04-20T06:02:03;97105.53;;;8.68;16.52
68141;BME280;54941;52.220;104.306;2023-04-20T06:04:30;97104.34;;;7.88;17.68
68141;BME280;54941;52.220;104.306;2023-04-20T06:06:56;97105.38;;;8.99;16.27
68141;BME280;54941;52.220;104.306;2023-04-20T06:09:24;97099.97;;;6.48;18.61
68141;BME280;54941;52.220;104.306;2023-04-20T06:11:51;97097.06;;;6.83;19.28
68141;BME280;54941;52.220;104.306;2023-04-20T06:14:17;97093.81;;;7.05;21.55
68141;BME280;54941;52.220;104.306;2023-04-20T06:16:44;97089.19;;;7.01;19.27
68141;BME280;54941;52.220;104.306;2023-04-20T06:19:10;97079.25;;;6.98;19.59
68141;BME280;54941;52.220;104.306;2023-04-20T06:21:37;97093.44;;;6.53;19.49
68141;BME280;54941;52.220;104.306;2023-04-20T06:24:03;97083.59;;;6.97;19.64
68141;BME280;54941;52.220;104.306;2023-04-20T06:26:31;97088.16;;;7.18;20.04
68141;BME280;54941;52.220;104.306;2023-04-20T06:28:58;97078.53;;;7.20;18.81
68141;BME280;54941;52.220;104.306;2023-04-20T06:31:24;97080.09;;;6.74;18.87
68141;BME280;54941;52.220;104.306;2023-04-20T06:33:51;97078.59;;;7.04;18.61
68141;BME280;54941;52.220;104.306;2023-04-20T06:36:17;97066.91;;;5.56;19.74
68141;BME280;54941;52.220;104.306;2023-04-20T06:38:44;97073.84;;;6.76;19.88
68141;BME280;54941;52.220;104.306;2023-04-20T06:41:10;97068.53;;;6.94;19.15
68141;BME280;54941;52.220;104.306;2023-04-20T06:43:38;97069.06;;;7.59;18.95
68141;BME280;54941;52.220;104.306;2023-04-20T06:46:04;97063.75;;;6.83;19.92
68141;BME280;54941;52.220;104.306;2023-04-20T06:48:31;97062.13;;;7.37;20.12
68141;BME280;54941;52.220;104.306;2023-04-20T06:50:57;97055.16;;;7.76;18.97
68141;BME280;54941;52.220;104.306;2023-04-20T06:53:24;97055.47;;;7.51;19.47
68141;BME280;54941;52.220;104.306;2023-04-20T06:55:52;97048.38;;;7.30;18.44
68141;BME280;54941;52.220;104.306;2023-04-20T06:58:19;97036.72;;;7.19;18.15
68141;BME280;54941;52.220;104.306;2023-04-20T07:00:47;97031.25;;;6.83;18.77
68141;BME280;54941;52.220;104.306;2023-04-20T07:03:13;97036.97;;;7.02;19.29
68141;BME280;54941;52.220;104.306;2023-04-20T07:05:40;97030.03;;;7.10;18.60
68141;BME280;54941;52.220;104.306;2023-04-20T07:08:06;97028.13;;;7.04;18.45
68141;BME280;54941;52.220;104.306;2023-04-20T07:10:32;97034.84;;;7.44;19.09
68141;BME280;54941;52.220;104.306;2023-04-20T07:12:59;65906.28;;;-142.07;100.00
68141;BME280;54941;52.220;104.306;2023-04-20T07:15:25;97028.81;;;6.19;18.66
68141;BME280;54941;52.220;104.306;2023-04-20T07:17:53;65906.28;;;-142.07;100.00
68141;BME280;54941;52.220;104.306;2023-04-20T07:20:20;65906.28;;;-142.07;100.00
68141;BME280;54941;52.220;104.306;2023-04-20T07:22:46;97011.69;;;6.35;17.60
68141;BME280;54941;52.220;104.306;2023-04-20T07:25:13;97001.16;;;6.77;18.44
68141;BME280;54941;52.220;104.306;2023-04-20T07:27:40;97006.22;;;6.47;17.72
68141;BME280;54941;52.220;104.306;2023-04-20T07:30:07;96989.94;;;7.17;17.61
68141;BME280;54941;52.220;104.306;2023-04-20T07:32:37;96999.75;;;6.75;18.21
68141;BME280;54941;52.220;104.306;2023-04-20T07:35:06;96992.28;;;6.57;19.07
68141;BME280;54941;52.220;104.306;2023-04-20T07:37:34;96985.81;;;6.69;18.45
68141;BME280;54941;52.220;104.306;2023-04-20T07:40:01;96984.63;;;6.33;19.93
68141;BME280;54941;52.220;104.306;2023-04-20T07:42:31;96982.88;;;6.33;19.95
68141;BME280;54941;52.220;104.306;2023-04-20T07:44:58;96985.38;;;7.81;18.13
68141;BME280;54941;52.220;104.306;2023-04-20T07:47:24;96978.50;;;7.28;17.72
68141;BME280;54941;52.220;104.306;2023-04-20T07:49:51;65906.28;;;-142.07;100.00
68141;BME280;54941;52.220;104.306;2023-04-20T07:52:19;96953.69;;;6.59;17.71
68141;BME280;54941;52.220;104.306;2023-04-20T07:54:45;96965.94;;;6.24;18.05
68141;BME280;54941;52.220;104.306;2023-04-20T07:57:11;96952.09;;;6.97;16.25
68141;BME280;54941;52.220;104.306;2023-04-20T07:59:38;96944.56;;;6.56;16.66
68141;BME280;54941;52.220;104.306;2023-04-20T08:02:06;96950.53;;;6.41;18.49
68141;BME280;54941;52.220;104.306;2023-04-20T08:04:34;96949.88;;;6.94;17.13
68141;BME280;54941;52.220;104.306;2023-04-20T08:07:00;96950.84;;;7.46;18.31
68141;BME280;54941;52.220;104.306;2023-04-20T08:09:28;96943.06;;;6.70;18.10
68141;BME280;54941;52.220;104.306;2023-04-20T08:11:55;96941.44;;;7.39;18.31
68141;BME280;54941;52.220;104.306;2023-04-20T08:14:21;96935.88;;;7.72;18.07
68141;BME280;54941;52.220;104.306;2023-04-20T08:16:48;96929.88;;;8.17;17.60
68141;BME280;54941;52.220;104.306;2023-04-20T08:19:14;96933.16;;;6.67;17.18
68141;BME280;54941;52.220;104.306;2023-04-20T08:21:41;96920.81;;;6.70;18.00
68141;BME280;54941;52.220;104.306;2023-04-20T08:24:08;65906.28;;;-142.07;100.00
68141;BME280;54941;52.220;104.306;2023-04-20T08:26:36;65906.28;;;-142.07;100.00
68141;BME280;54941;52.220;104.306;2023-04-20T08:29:02;96911.16;;;6.80;18.42
68141;BME280;54941;52.220;104.306;2023-04-20T08:31:29;96911.97;;;7.34;18.72
68141;BME280;54941;52.220;104.306;2023-04-20T08:33:55;96908.22;;;7.45;18.33
68141;BME280;54941;52.220;104.306;2023-04-20T08:36:22;96906.50;;;7.38;17.82
68141;BME280;54941;52.220;104.306;2023-04-20T08:38:53;65906.28;;;-142.07;100.00
68141;BME280;54941;52.220;104.306;2023-04-20T08:41:20;96900.22;;;6.95;18.73
68141;BME280;54941;52.220;104.306;2023-04-20T08:43:47;96905.97;;;6.97;17.41
68141;BME280;54941;52.220;104.306;2023-04-20T08:46:14;96895.47;;;6.83;17.45
68141;BME280;54941;52.220;104.306;2023-04-20T08:48:44;96895.13;;;6.56;17.37
68141;BME280;54941;52.220;104.306;2023-04-20T08:51:13;96892.31;;;7.27;17.11
68141;BME280;54941;52.220;104.306;2023-04-20T08:53:40;96887.47;;;7.69;16.98
68141;BME280;54941;52.220;104.306;2023-04-20T08:56:07;65906.28;;;-142.07;100.00
68141;BME280;54941;52.220;104.306;2023-04-20T08:58:33;96885.63;;;7.63;17.93
68141;BME280;54941;52.220;104.306;2023-04-20T09:01:01;96880.41;;;7.34;17.40
68141;BME280;54941;52.220;104.306;2023-04-20T09:03:32;96876.84;;;7.58;17.76
68141;BME280;54941;52.220;104.306;2023-04-20T09:05:59;96880.78;;;6.39;18.04
68141;BME280;54941;52.220;104.306;2023-04-20T09:08:34;96871.34;;;7.01;17.21
68141;BME280;54941;52.220;104.306;2023-04-20T09:11:00;96865.56;;;6.45;19.06
68141;BME280;54941;52.220;104.306;2023-04-20T09:13:27;96870.28;;;6.64;19.23
68141;BME280;54941;52.220;104.306;2023-04-20T09:15:53;96858.66;;;7.07;18.42
68141;BME280;54941;52.220;104.306;2023-04-20T09:18:21;96854.47;;;7.29;18.29
68141;BME280;54941;52.220;104.306;2023-04-20T09:20:48;96848.31;;;7.75;17.39
68141;BME280;54941;52.220;104.306;2023-04-20T09:23:15;96858.19;;;7.04;18.92
68141;BME280;54941;52.220;104.306;2023-04-20T09:25:43;96859.22;;;6.64;17.63
68141;BME280;54941;52.220;104.306;2023-04-20T09:28:10;96850.44;;;7.12;17.26
68141;BME280;54941;52.220;104.306;2023-04-20T09:30:37;96849.34;;;6.14;17.76
68141;BME280;54941;52.220;104.306;2023-04-20T09:33:04;96846.66;;;6.77;18.16
68141;BME280;54941;52.220;104.306;2023-04-20T09:35:32;96841.88;;;7.42;17.58
68141;BME280;54941;52.220;104.306;2023-04-20T09:37:59;96840.06;;;7.28;17.73
68141;BME280;54941;52.220;104.306;2023-04-20T09:40:25;96840.13;;;6.74;19.15
68141;BME280;54941;52.220;104.306;2023-04-20T09:42:52;96842.28;;;6.85;18.19
68141;BME280;54941;52.220;104.306;2023-04-20T09:45:19;96844.59;;;6.42;18.74
68141;BME280;54941;52.220;104.306;2023-04-20T09:47:46;65906.28;;;-142.07;100.00
68141;BME280;54941;52.220;104.306;2023-04-20T09:50:13;65906.28;;;-142.07;100.00
68141;BME280;54941;52.220;104.306;2023-04-20T09:52:42;65906.28;;;-142.07;100.00
68141;BME280;54941;52.220;104.306;2023-04-20T09:55:10;65906.28;;;-142.07;100.00
68141;BME280;54941;52.220;104.306;2023-04-20T09:58:36;65906.28;;;-142.07;100.00
68141;BME280;54941;52.220;104.306;2023-04-20T10:01:59;65906.28;;;-142.07;100.00
68141;BME280;54941;52.220;104.306;2023-04-20T10:04:26;65906.28;;;-142.07;100.00
68141;BME280;54941;52.220;104.306;2023-04-20T10:06:54;65906.28;;;-142.07;100.00
68141;BME280;54941;52.220;104.306;2023-04-20T10:09:23;65906.28;;;-142.07;100.00
68141;BME280;54941;52.220;104.306;2023-04-20T10:11:50;65906.28;;;-142.07;100.00
68141;BME280;54941;52.220;104.306;2023-04-20T10:14:18;65906.28;;;-142.07;100.00
68141;BME280;54941;52.220;104.306;2023-04-20T10:16:56;65906.28;;;-142.07;100.00
68141;BME280;54941;52.220;104.306;2023-04-20T10:19:23;96825.38;;;6.99;18.46
68141;BME280;54941;52.220;104.306;2023-04-20T10:21:50;96826.53;;;6.97;17.02
68141;BME280;54941;52.220;104.306;2023-04-20T10:24:29;65906.28;;;-142.07;100.00
68141;BME280;54941;52.220;104.306;2023-04-20T10:26:56;96825.03;;;6.79;17.90
68141;BME280;54941;52.220;104.306;2023-04-20T10:29:24;96819.78;;;7.18;17.91
68141;BME280;54941;52.220;104.306;2023-04-20T10:31:51;96826.00;;;7.24;18.14
68141;BME280;54941;52.220;104.306;2023-04-20T10:34:28;96827.84;;;6.62;18.35
68141;BME280;54941;52.220;104.306;2023-04-20T10:37:05;96832.84;;;7.31;18.11
68141;BME280;54941;52.220;104.306;2023-04-20T10:39:33;96825.53;;;6.44;18.37
68141;BME280;54941;52.220;104.306;2023-04-20T10:41:59;96830.00;;;7.04;18.57
68141;BME280;54941;52.220;104.306;2023-04-20T10:44:26;96823.13;;;7.04;18.14
68141;BME280;54941;52.220;104.306;2023-04-20T10:46:53;96828.34;;;7.11;18.12
68141;BME280;54941;52.220;104.306;2023-04-20T10:49:24;96831.81;;;6.95;18.49
68141;BME280;54941;52.220;104.306;2023-04-20T10:51:52;65906.28;;;-142.07;100.00
68141;BME280;54941;52.220;104.306;2023-04-20T10:54:18;96830.09;;;6.34;19.14
68141;BME280;54941;52.220;104.306;2023-04-20T10:56:47;96828.88;;;6.53;17.91
68141;BME280;54941;52.220;104.306;2023-04-20T10:59:14;96827.84;;;6.31;18.65
68141;BME280;54941;52.220;104.306;2023-04-20T11:01:41;96831.41;;;6.61;18.58
68141;BME280;54941;52.220;104.306;2023-04-20T11:04:08;96833.56;;;6.41;19.22
68141;BME280;54941;52.220;104.306;2023-04-20T11:06:35;96829.34;;;6.56;18.07
68141;BME280;54941;52.220;104.306;2023-04-20T11:09:03;96827.81;;;5.92;18.92
68141;BME280;54941;52.220;104.306;2023-04-20T11:11:40;96828.94;;;6.36;18.69
68141;BME280;54941;52.220;104.306;2023-04-20T11:14:09;96839.47;;;6.50;18.58
68141;BME280;54941;52.220;104.306;2023-04-20T11:16:36;96832.56;;;6.11;18.83
68141;BME280;54941;52.220;104.306;2023-04-20T11:19:03;96835.38;;;6.63;18.89
68141;BME280;54941;52.220;104.306;2023-04-20T11:21:37;96843.22;;;6.31;18.60
68141;BME280;54941;52.220;104.306;2023-04-20T11:24:05;96843.97;;;6.40;18.68
68141;BME280;54941;52.220;104.306;2023-04-20T11:26:36;96842.88;;;6.34;18.78
68141;BME280;54941;52.220;104.306;2023-04-20T11:29:02;96839.50;;;5.78;19.93
68141;BME280;54941;52.220;104.306;2023-04-20T11:31:30;65906.28;;;-142.07;100.00
68141;BME280;54941;52.220;104.306;2023-04-20T11:33:57;96851.34;;;5.79;19.86
68141;BME280;54941;52.220;104.306;2023-04-20T11:36:24;96858.72;;;6.29;19.02
68141;BME280;54941;52.220;104.306;2023-04-20T11:38:51;96850.69;;;5.85;19.06
68141;BME280;54941;52.220;104.306;2023-04-20T11:41:18;96858.16;;;6.11;19.92
68141;BME280;54941;52.220;104.306;2023-04-20T11:43:44;96861.22;;;5.99;19.22
68141;BME280;54941;52.220;104.306;2023-04-20T11:46:15;96860.28;;;5.75;20.36
68141;BME280;54941;52.220;104.306;2023-04-20T11:48:43;96866.69;;;5.71;19.86
68141;BME280;54941;52.220;104.306;2023-04-20T11:51:10;96864.63;;;5.59;19.60
68141;BME280;54941;52.220;104.306;2023-04-20T11:53:36;96871.31;;;5.92;19.60
68141;BME280;54941;52.220;104.306;2023-04-20T11:56:03;96873.06;;;5.92;19.71
68141;BME280;54941;52.220;104.306;2023-04-20T11:58:30;96873.88;;;5.68;19.61
68141;BME280;54941;52.220;104.306;2023-04-20T12:00:56;96874.69;;;5.76;21.67
68141;BME280;54941;52.220;104.306;2023-04-20T12:03:23;65906.28;;;-142.07;100.00
68141;BME280;54941;52.220;104.306;2023-04-20T12:05:50;65906.28;;;-142.07;100.00
68141;BME280;54941;52.220;104.306;2023-04-20T12:08:17;65906.28;;;-142.07;100.00
68141;BME280;54941;52.220;104.306;2023-04-20T12:10:43;65906.28;;;-142.07;100.00
68141;BME280;54941;52.220;104.306;2023-04-20T12:13:10;65906.28;;;-142.07;100.00
68141;BME280;54941;52.220;104.306;2023-04-20T12:15:37;65906.28;;;-142.07;100.00
68141;BME280;54941;52.220;104.306;2023-04-20T12:18:03;65906.28;;;-142.07;100.00
68141;BME280;54941;52.220;104.306;2023-04-20T12:20:30;65906.28;;;-142.07;100.00
68141;BME280;54941;52.220;104.306;2023-04-20T12:22:58;65906.28;;;-142.07;100.00
68141;BME280;54941;52.220;104.306;2023-04-20T12:25:24;65906.28;;;-142.07;100.00
68141;BME280;54941;52.220;104.306;2023-04-20T12:27:50;65906.28;;;-142.07;100.00
68141;BME280;54941;52.220;104.306;2023-04-20T12:30:17;65906.28;;;-142.07;100.00
68141;BME280;54941;52.220;104.306;2023-04-20T12:32:43;65906.28;;;-142.07;100.00
68141;BME280;54941;52.220;104.306;2023-04-20T12:35:10;65906.28;;;-142.07;100.00
68141;BME280;54941;52.220;104.306;2023-04-20T12:37:36;65906.28;;;-142.07;100.00
68141;BME280;54941;52.220;104.306;2023-04-20T12:40:06;65906.28;;;-142.07;100.00
68141;BME280;54941;52.220;104.306;2023-04-20T12:42:33;65906.28;;;-142.07;100.00